Time;durP1;ratioP1;P1;durP2;ratioP2;P2;SDS_P1;SDS_P2;PMS_P1;PMS_P2;Temp;Humidity;BMP_temperature;BMP_pressure;BME280_temperature;BME280_humidity;BME280_pressure;Samples;Min_cycle;Max_cycle;Signal;HPM_P1;HPM_P2
2022/12/04 00:01:49;;;;;;;64.07;24.98;;;;;;;5.57;100.00;99830.03;4271119;82;28548;-75
2022/12/04 00:07:51;;;;;;;56.85;22.58;;;;;;;5.59;100.00;99819.16;4253072;82;28506;-76
2022/12/04 00:13:53;;;;;;;54.45;22.55;;;;;;;5.56;100.00;99827.01;4272561;82;28519;-77
2022/12/04 00:19:54;;;;;;;60.48;22.98;;;;;;;5.48;100.00;99824.43;4284273;82;28554;-76
2022/12/04 00:26:09;;;;;;;51.35;21.70;;;;;;;5.63;100.00;99828.48;4319395;82;28579;-75
2022/12/04 00:32:13;;;;;;;54.05;22.62;;;;;;;5.59;100.00;99825.83;4312762;80;28555;-76
2022/12/04 00:38:13;;;;;;;53.30;22.32;;;;;;;5.48;100.00;99812.42;4281179;82;28503;-80
2022/12/04 00:44:15;;;;;;;49.35;19.75;;;;;;;5.57;100.00;99811.36;4234384;82;28512;-77
2022/12/04 00:50:16;;;;;;;50.65;20.20;;;;;;;5.35;100.00;99825.02;4246359;82;28550;-77
2022/12/04 00:56:21;;;;;;;36.95;14.65;;;;;;;5.84;100.00;99814.97;4259628;82;28520;-77
2022/12/04 01:02:23;;;;;;;60.50;22.32;;;;;;;5.99;99.48;99812.33;4241346;82;28655;-79
2022/12/04 01:08:24;;;;;;;46.95;18.25;;;;;;;6.09;100.00;99808.08;4259271;82;28510;-79
2022/12/04 01:14:26;;;;;;;48.85;19.37;;;;;;;5.37;100.00;99796.84;4230758;82;28618;-81
2022/12/04 01:20:27;;;;;;;52.03;21.55;;;;;;;5.83;100.00;99787.44;4239606;83;28526;-81
2022/12/04 01:26:28;;;;;;;56.60;22.13;;;;;;;6.03;100.00;99783.44;4234544;83;28570;-81
2022/12/04 01:32:30;;;;;;;49.83;19.85;;;;;;;5.83;100.00;99782.09;4242118;83;28492;-79
2022/12/04 01:38:32;;;;;;;46.20;18.15;;;;;;;5.83;100.00;99775.42;4228107;83;28545;-79
2022/12/04 01:44:34;;;;;;;51.33;19.52;;;;;;;6.07;100.00;99769.53;4190143;83;28494;-79
2022/12/04 01:50:35;;;;;;;46.23;19.30;;;;;;;5.74;100.00;99767.69;4211016;83;28513;-78
2022/12/04 01:56:45;;;;;;;45.83;17.95;;;;;;;6.03;100.00;99763.41;4251660;82;28524;-78
2022/12/04 02:02:47;;;;;;;52.00;20.25;;;;;;;6.21;100.00;99763.88;4209420;83;28510;-80
2022/12/04 02:08:48;;;;;;;45.38;18.70;;;;;;;6.51;100.00;99762.52;4220467;82;28580;-79
2022/12/04 02:15:12;;;;;;;45.28;17.82;;;;;;;6.11;100.00;99759.32;4227861;82;28624;-82
2022/12/04 02:21:25;;;;;;;39.65;17.25;;;;;;;6.10;100.00;99755.84;4214570;84;28521;-80
2022/12/04 02:27:46;;;;;;;41.05;17.23;;;;;;;5.71;100.00;99759.02;4216471;82;28535;-82
2022/12/04 02:34:08;;;;;;;44.27;17.37;;;;;;;5.92;100.00;99758.00;4243572;82;28519;-80
2022/12/04 02:40:27;;;;;;;44.48;18.45;;;;;;;6.04;100.00;99754.38;4256061;82;28518;-80
2022/12/04 02:46:37;;;;;;;39.63;16.02;;;;;;;6.40;100.00;99755.83;4200160;84;28479;-80
2022/12/04 02:52:43;;;;;;;45.95;17.92;;;;;;;6.39;100.00;99760.01;4259141;81;28569;-81
2022/12/04 02:58:50;;;;;;;44.27;17.98;;;;;;;6.39;100.00;99751.47;4215846;82;28545;-80
2022/12/04 03:04:55;;;;;;;44.67;18.12;;;;;;;6.43;100.00;99764.48;4222425;82;28563;-79
2022/12/04 03:10:59;;;;;;;47.03;18.60;;;;;;;6.36;100.00;99769.73;4241425;82;28551;-79
2022/12/04 03:17:06;;;;;;;45.75;18.92;;;;;;;6.34;100.00;99763.23;4250156;82;28519;-80
2022/12/04 03:23:16;;;;;;;45.38;18.65;;;;;;;6.53;100.00;99761.02;4249360;82;28548;-80
2022/12/04 03:29:24;;;;;;;39.45;16.23;;;;;;;6.08;100.00;99759.17;4278616;82;28487;-81
2022/12/04 03:35:34;;;;;;;43.35;17.55;;;;;;;5.93;100.00;99757.80;4251031;82;28546;-79
2022/12/04 03:41:58;;;;;;;40.55;17.12;;;;;;;5.61;100.00;99766.45;4233149;84;28537;-79
2022/12/04 03:48:22;;;;;;;32.08;14.68;;;;;;;5.85;100.00;99770.73;4142942;84;28484;-79
2022/12/04 03:54:31;;;;;;;39.10;15.83;;;;;;;5.81;100.00;99764.11;4100542;86;28624;-82
2022/12/04 04:00:38;;;;;;;37.78;15.78;;;;;;;5.99;100.00;99765.09;4109980;85;28528;-80
2022/12/04 04:06:51;;;;;;;36.55;15.32;;;;;;;5.83;100.00;99769.25;4096995;85;28528;-82
2022/12/04 04:25:43;;;;;;;32.20;14.30;;;;;;;6.42;100.00;99771.65;4137413;84;28496;-80
2022/12/04 04:32:04;;;;;;;35.55;15.10;;;;;;;6.55;100.00;99762.98;4150674;84;28641;-77
2022/12/04 04:38:23;;;;;;;32.20;14.60;;;;;;;6.59;100.00;99767.45;4136552;84;28504;-78
2022/12/04 04:44:30;;;;;;;34.13;14.58;;;;;;;6.48;100.00;99752.22;4147312;84;28490;-81
2022/12/04 04:50:34;;;;;;;33.67;14.03;;;;;;;6.17;100.00;99757.27;4171813;84;28459;-81
2022/12/04 04:56:42;;;;;;;36.00;15.00;;;;;;;6.26;100.00;99747.30;4129528;84;28543;-81
2022/12/04 05:02:43;;;;;;;32.33;13.88;;;;;;;5.91;100.00;99745.15;4153709;84;28583;-80
2022/12/04 05:08:46;;;;;;;39.75;16.60;;;;;;;6.16;100.00;99749.42;4142609;83;28567;-80
2022/12/04 05:14:47;;;;;;;31.35;13.58;;;;;;;6.68;100.00;99754.30;4150124;82;28476;-80
2022/12/04 05:20:49;;;;;;;38.95;16.45;;;;;;;6.24;100.00;99757.34;4201952;83;28579;-79
2022/12/04 05:26:50;;;;;;;37.00;15.48;;;;;;;6.76;100.00;99754.69;4186057;82;28495;-79
2022/12/04 05:32:51;;;;;;;31.62;13.88;;;;;;;6.61;100.00;99753.39;4190216;83;28504;-79
2022/12/04 05:38:53;;;;;;;31.97;13.55;;;;;;;6.47;100.00;99755.91;4183642;83;28561;-80
2022/12/04 05:44:54;;;;;;;36.40;15.85;;;;;;;6.73;100.00;99769.78;4193312;83;28486;-80
2022/12/04 05:50:55;;;;;;;41.00;16.25;;;;;;;6.30;100.00;99764.63;4183275;83;28509;-79
2022/12/04 05:56:57;;;;;;;35.23;15.53;;;;;;;6.94;100.00;99772.48;4184482;85;28588;-80
2022/12/04 06:02:58;;;;;;;31.42;12.58;;;;;;;6.65;100.00;99767.52;4185891;83;28506;-79
2022/12/04 06:09:02;;;;;;;36.08;16.05;;;;;;;6.90;98.80;99772.52;4196124;85;28516;-82
2022/12/04 06:15:04;;;;;;;34.78;15.43;;;;;;;6.80;99.42;99771.50;4149702;82;28534;-81
2022/12/04 06:21:06;;;;;;;35.75;14.95;;;;;;;6.53;100.00;99766.36;4165000;84;28540;-81
2022/12/04 06:27:07;;;;;;;34.40;15.10;;;;;;;6.15;100.00;99776.66;4164585;84;28621;-82
2022/12/04 06:33:08;;;;;;;34.35;14.80;;;;;;;6.44;100.00;99774.95;4165263;84;28512;-82
2022/12/04 06:39:10;;;;;;;32.17;13.00;;;;;;;6.59;100.00;99777.61;4121010;84;28554;-82
2022/12/04 06:45:11;;;;;;;29.23;12.60;;;;;;;5.72;100.00;99779.34;4116431;84;28536;-81
2022/12/04 06:51:19;;;;;;;31.12;14.23;;;;;;;5.88;100.00;99773.55;4145991;84;28555;-81
2022/12/04 06:57:21;;;;;;;29.52;13.58;;;;;;;6.26;100.00;99768.67;4143619;84;28569;-80
2022/12/04 07:03:23;;;;;;;32.45;14.85;;;;;;;6.26;100.00;99765.50;4165954;84;28527;-80
2022/12/04 07:09:25;;;;;;;28.32;13.90;;;;;;;6.87;100.00;99761.38;4163457;84;28548;-80
2022/12/04 07:15:26;;;;;;;30.10;13.85;;;;;;;6.79;99.36;99756.98;4158835;82;28531;-80
2022/12/04 07:21:30;;;;;;;26.87;13.10;;;;;;;7.07;100.00;99770.96;4143334;84;28535;-82
2022/12/04 07:27:31;;;;;;;26.62;13.10;;;;;;;7.50;96.57;99770.14;4155078;84;28511;-81
2022/12/04 07:33:33;;;;;;;27.65;12.47;;;;;;;7.57;94.26;99772.34;4162898;84;28508;-80
2022/12/04 07:39:35;;;;;;;24.40;11.43;;;;;;;6.97;94.56;99772.59;4190566;84;28529;-78
2022/12/04 07:45:36;;;;;;;28.67;13.05;;;;;;;6.21;100.00;99760.39;4185147;84;28565;-78
2022/12/04 07:51:37;;;;;;;26.82;13.00;;;;;;;6.24;100.00;99757.34;4165556;84;28556;-80
2022/12/04 07:57:39;;;;;;;24.95;12.45;;;;;;;6.45;100.00;99757.10;4137992;84;28517;-79
2022/12/04 08:03:43;;;;;;;24.20;11.57;;;;;;;6.35;100.00;99749.36;4149220;84;28620;-80
2022/12/04 08:09:45;;;;;;;24.45;12.13;;;;;;;6.62;100.00;99735.00;4163574;84;28547;-81
2022/12/04 08:15:48;;;;;;;26.82;12.75;;;;;;;6.91;100.00;99743.95;4241642;82;28582;-81
2022/12/04 08:21:49;;;;;;;24.30;12.78;;;;;;;6.70;100.00;99744.25;4278265;82;28542;-81
2022/12/04 08:27:51;;;;;;;28.07;12.30;;;;;;;6.22;100.00;99750.03;4274221;82;28540;-81
2022/12/04 08:33:56;;;;;;;27.87;12.85;;;;;;;6.40;100.00;99771.86;4270196;82;28561;-80
2022/12/04 08:39:57;;;;;;;28.25;13.32;;;;;;;6.67;100.00;99775.36;4265082;81;28523;-80
2022/12/04 08:46:03;;;;;;;25.85;13.05;;;;;;;7.22;98.15;99765.03;4272788;82;28499;-80
2022/12/04 08:52:07;;;;;;;28.50;13.80;;;;;;;6.91;99.81;99762.14;4272709;82;28547;-79
2022/12/04 08:58:08;;;;;;;25.57;12.00;;;;;;;7.19;97.97;99779.32;4259370;81;28531;-80
2022/12/04 09:04:10;;;;;;;22.48;12.25;;;;;;;7.08;98.07;99784.64;4238874;82;28505;-80
2022/12/04 09:10:12;;;;;;;24.35;11.55;;;;;;;7.42;96.32;99768.92;4277542;82;28511;-81
2022/12/04 09:16:21;;;;;;;27.48;12.65;;;;;;;7.31;96.02;99767.58;4232047;82;28545;-81
2022/12/04 09:22:22;;;;;;;24.50;12.07;;;;;;;7.37;97.03;99778.86;4230038;82;28553;-80
2022/12/04 09:28:26;;;;;;;25.97;12.50;;;;;;;7.00;96.75;99776.24;4222396;83;28555;-80
2022/12/04 09:34:28;;;;;;;27.17;13.13;;;;;;;8.20;94.12;99769.39;4232150;83;28635;-80
2022/12/04 09:40:42;;;;;;;26.57;13.85;;;;;;;7.71;94.84;99773.80;4228878;83;28477;-84
2022/12/04 09:47:03;;;;;;;27.73;13.68;;;;;;;7.80;94.09;99756.55;4240429;83;28496;-83
2022/12/04 09:53:18;;;;;;;27.22;14.10;;;;;;;7.87;94.40;99748.06;4236869;83;28536;-85
2022/12/04 09:59:26;;;;;;;27.47;14.60;;;;;;;7.67;95.45;99748.75;4243202;83;28495;-86
2022/12/04 10:06:08;;;;;;;27.13;14.83;;;;;;;7.49;95.31;99739.02;4236152;82;35798;-83
2022/12/04 10:12:21;;;;;;;25.55;14.10;;;;;;;7.67;96.64;99734.02;4202976;83;28478;-86
2022/12/04 10:18:40;;;;;;;27.60;15.88;;;;;;;7.78;94.21;99721.96;4130465;85;28592;-82
2022/12/04 10:24:55;;;;;;;26.02;15.30;;;;;;;8.00;94.95;99715.19;4111234;85;28534;-82
2022/12/04 10:31:01;;;;;;;26.73;14.87;;;;;;;8.03;95.17;99698.72;4135630;85;28565;-80
2022/12/04 10:37:08;;;;;;;24.00;13.20;;;;;;;8.13;94.76;99685.48;4138126;85;28555;-79
2022/12/04 10:43:17;;;;;;;23.98;13.43;;;;;;;8.81;91.13;99674.48;4128431;85;28505;-80
2022/12/04 10:49:31;;;;;;;21.12;12.47;;;;;;;9.26;86.86;99668.54;4131036;85;28596;-81
2022/12/04 10:55:37;;;;;;;22.00;12.88;;;;;;;8.55;89.78;99672.88;4125086;85;28514;-82
2022/12/04 11:01:37;;;;;;;21.33;12.13;;;;;;;8.84;88.19;99668.20;4092942;85;28551;-87
2022/12/04 11:07:48;;;;;;;23.20;12.75;;;;;;;9.36;85.76;99667.61;4124701;85;28530;-82
2022/12/04 11:14:19;;;;;;;20.48;11.78;;;;;;;9.47;84.99;99657.58;4134673;83;28879;-81
2022/12/04 11:20:25;;;;;;;20.15;11.83;;;;;;;10.05;83.64;99649.79;4201293;83;28529;-83
2022/12/04 11:26:34;;;;;;;21.62;11.80;;;;;;;10.30;80.31;99639.64;4230146;83;29034;-78
2022/12/04 11:32:37;;;;;;;20.02;10.75;;;;;;;10.34;77.55;99643.58;4204678;83;28532;-82
2022/12/04 11:38:40;;;;;;;20.60;11.97;;;;;;;10.41;78.99;99644.88;4234035;83;28508;-79
2022/12/04 11:45:01;;;;;;;20.72;11.43;;;;;;;10.80;75.22;99654.28;4202696;83;28595;-82
2022/12/04 11:51:17;;;;;;;19.55;10.98;;;;;;;10.99;74.41;99645.79;4243632;83;28469;-82
2022/12/04 11:58:03;;;;;;;18.02;11.00;;;;;;;10.60;74.49;99648.52;4203652;83;28553;-85
2022/12/04 12:04:11;;;;;;;;;;;;;;;10.62;75.21;99637.55;4219283;82;28580;-83
2022/12/04 12:10:37;;;;;;;17.42;10.38;;;;;;;10.74;75.47;99629.09;4256564;83;20255;-80
2022/12/04 12:17:07;;;;;;;16.80;9.88;;;;;;;10.36;78.26;99629.90;4229072;82;28550;-83
2022/12/04 12:24:06;;;;;;;19.75;10.35;;;;;;;9.71;84.66;99635.12;4255852;82;28930;-82
2022/12/04 12:30:13;;;;;;;17.82;10.08;;;;;;;9.30;88.40;99640.25;4252052;82;28497;-81
2022/12/04 12:36:14;;;;;;;21.02;10.90;;;;;;;9.76;86.66;99642.03;4233836;84;28535;-83
2022/12/04 12:42:40;;;;;;;17.82;9.95;;;;;;;9.62;88.37;99625.64;4207945;83;28495;-83
2022/12/04 12:48:58;;;;;;;20.90;11.18;;;;;;;9.27;89.72;99613.84;4201656;82;28552;-85
2022/12/04 12:55:23;;;;;;;22.25;11.28;;;;;;;9.80;90.12;99612.91;4249052;82;28578;-83
2022/12/04 13:01:32;;;;;;;20.17;11.43;;;;;;;9.59;89.13;99616.67;4258022;82;28539;-81
2022/12/04 13:08:14;;;;;;;20.77;11.38;;;;;;;9.54;90.10;99616.49;4240506;82;28571;-78
2022/12/04 13:14:15;;;;;;;21.02;11.55;;;;;;;9.85;88.76;99608.25;4236338;82;28577;-79
2022/12/04 13:20:28;;;;;;;18.87;11.03;;;;;;;9.65;90.38;99615.84;4238525;82;28556;-76
2022/12/04 13:26:57;;;;;;;20.85;11.68;;;;;;;9.49;90.89;99620.61;4225421;82;28570;-78
2022/12/04 13:33:28;;;;;;;21.07;11.50;;;;;;;9.54;91.30;99614.61;4229428;81;28519;-79
2022/12/04 13:40:13;;;;;;;20.37;11.43;;;;;;;9.76;90.12;99618.38;4214934;82;28574;-77
2022/12/04 13:46:37;;;;;;;18.57;9.80;;;;;;;9.32;91.69;99623.41;4203719;82;28519;-74
2022/12/04 13:52:41;;;;;;;19.12;11.15;;;;;;;9.14;92.26;99627.58;4237254;82;28531;-84
2022/12/04 13:58:42;;;;;;;19.73;10.78;;;;;;;9.30;92.00;99631.70;4254679;82;28578;-79
2022/12/04 14:04:58;;;;;;;18.15;9.80;;;;;;;9.08;92.65;99622.22;4250133;82;28534;-86
2022/12/04 14:11:12;;;;;;;19.93;10.97;;;;;;;8.85;92.80;99618.91;4238805;82;28499;-86
2022/12/04 14:17:30;;;;;;;21.02;11.25;;;;;;;9.04;91.99;99619.94;4252832;82;28636;-83
2022/12/04 14:23:42;;;;;;;24.30;12.63;;;;;;;8.55;93.01;99626.52;4234255;82;28492;-83
2022/12/04 14:29:51;;;;;;;21.85;11.40;;;;;;;8.47;96.21;99622.95;4239441;82;28501;-85
2022/12/04 14:36:00;;;;;;;24.70;12.55;;;;;;;8.07;96.55;99616.12;4244753;82;28551;-83
2022/12/04 14:42:18;;;;;;;28.07;13.35;;;;;;;7.72;97.58;99634.41;4228882;82;28519;-85
2022/12/04 14:48:52;;;;;;;25.82;13.38;;;;;;;7.99;96.16;99639.90;4228741;82;28522;-84
2022/12/04 14:55:19;;;;;;;28.10;13.95;;;;;;;7.89;96.29;99645.61;4214817;82;28502;-87
2022/12/04 15:01:36;;;;;;;29.00;14.43;;;;;;;7.83;96.85;99647.75;4240853;82;28500;-87
2022/12/04 15:07:48;;;;;;;27.45;14.47;;;;;;;7.58;97.75;99653.56;4261307;81;28561;-85
2022/12/04 15:13:50;;;;;;;26.62;13.93;;;;;;;7.46;96.99;99647.11;4251819;82;28513;-82
2022/12/04 15:19:51;;;;;;;26.40;14.78;;;;;;;7.41;96.59;99651.70;4281972;82;28569;-82
2022/12/04 15:26:00;;;;;;;28.20;13.88;;;;;;;7.43;97.20;99646.98;4244513;82;28541;-81
2022/12/04 15:32:06;;;;;;;29.12;14.03;;;;;;;7.42;97.10;99651.20;4245527;82;28531;-79
2022/12/04 15:38:12;;;;;;;27.77;14.28;;;;;;;7.48;95.70;99644.56;4212269;82;28515;-78
2022/12/04 15:44:30;;;;;;;27.67;14.90;;;;;;;6.67;99.36;99649.25;4277416;81;28541;-83
2022/12/04 15:50:31;;;;;;;27.07;14.58;;;;;;;6.87;99.49;99649.95;4207221;82;28464;-81
2022/12/04 15:56:33;;;;;;;28.27;15.05;;;;;;;6.94;97.33;99658.86;4252228;82;28510;-82
2022/12/04 16:02:41;;;;;;;29.85;15.10;;;;;;;7.22;95.92;99675.43;4278598;82;28522;-80
2022/12/04 16:08:50;;;;;;;29.35;14.87;;;;;;;7.33;94.71;99667.41;4252586;84;28598;-79
2022/12/04 16:14:54;;;;;;;27.02;14.07;;;;;;;6.78;97.69;99670.64;4273626;82;28525;-80
2022/12/04 16:20:55;;;;;;;30.25;14.65;;;;;;;6.92;96.11;99676.92;4253665;82;28541;-78
2022/12/04 16:26:59;;;;;;;31.00;14.40;;;;;;;7.14;96.08;99674.75;4266274;82;28483;-78
2022/12/04 16:33:01;;;;;;;28.00;14.18;;;;;;;6.45;98.37;99665.75;4254543;82;28553;-76
2022/12/04 16:39:03;;;;;;;28.25;14.78;;;;;;;6.97;96.33;99665.16;4283360;82;28483;-76
2022/12/04 16:45:22;;;;;;;27.62;14.23;;;;;;;6.62;96.73;99666.87;4255853;82;28509;-79
2022/12/04 16:51:25;;;;;;;27.07;13.95;;;;;;;6.97;94.72;99675.84;4251859;82;28566;-77
2022/12/04 16:57:27;;;;;;;29.50;14.93;;;;;;;7.06;93.86;99677.06;4251922;82;28558;-78
2022/12/04 17:03:32;;;;;;;31.12;15.08;;;;;;;7.25;93.82;99681.75;4274455;81;28500;-78
2022/12/04 17:09:34;;;;;;;28.40;15.38;;;;;;;6.89;94.96;99677.31;4292427;82;28565;-78
2022/12/04 17:15:35;;;;;;;31.30;15.38;;;;;;;6.54;97.69;99692.67;4263375;82;28477;-84
2022/12/04 17:21:37;;;;;;;28.12;14.40;;;;;;;7.28;93.36;99689.06;4252969;82;28523;-83
2022/12/04 17:27:38;;;;;;;29.23;15.58;;;;;;;6.91;95.06;99677.12;4280060;82;28452;-84
2022/12/04 17:33:43;;;;;;;29.23;15.03;;;;;;;6.68;94.68;99681.63;4253626;82;29080;-83
2022/12/04 17:39:44;;;;;;;29.65;14.55;;;;;;;7.11;94.51;99678.14;4251141;82;28525;-82
2022/12/04 17:45:45;;;;;;;32.33;15.38;;;;;;;6.21;96.53;99680.29;4250844;82;28580;-84
2022/12/04 17:51:47;;;;;;;26.80;14.30;;;;;;;6.58;96.79;99671.76;4263733;81;28547;-86
2022/12/04 17:57:48;;;;;;;30.70;15.08;;;;;;;6.73;96.50;99677.05;4249969;82;28581;-80
2022/12/04 18:03:54;;;;;;;27.10;14.23;;;;;;;7.08;94.94;99685.71;4248274;84;28479;-78
2022/12/04 18:09:56;;;;;;;27.98;14.07;;;;;;;6.37;98.07;99682.73;4246768;83;28525;-83
2022/12/04 18:16:04;;;;;;;26.17;13.53;;;;;;;6.35;98.52;99687.93;4250119;82;28561;-82
2022/12/04 18:22:05;;;;;;;28.77;15.00;;;;;;;6.26;99.33;99673.37;4244713;83;28542;-84
2022/12/04 18:28:07;;;;;;;30.95;15.15;;;;;;;6.49;100.00;99684.41;4235167;82;28462;-85
2022/12/04 18:34:10;;;;;;;26.70;13.03;;;;;;;6.55;99.87;99671.62;4331710;81;28520;-86
2022/12/04 18:40:20;;;;;;;29.32;13.98;;;;;;;6.69;99.02;99677.94;4279516;81;28534;-85
2022/12/04 18:46:24;;;;;;;24.15;13.05;;;;;;;6.64;98.73;99680.86;4331517;81;28597;-88
2022/12/04 18:52:27;;;;;;;23.87;12.95;;;;;;;6.60;96.97;99683.08;4326230;81;28537;-87
2022/12/04 18:58:29;;;;;;;28.23;15.05;;;;;;;6.52;98.38;99677.34;4301436;81;28595;-89
2022/12/04 19:04:37;;;;;;;27.15;13.05;;;;;;;6.68;97.59;99668.79;4303829;81;28533;-86
2022/12/04 19:10:40;;;;;;;28.00;14.35;;;;;;;6.48;98.21;99681.92;4260769;81;28543;-85
2022/12/04 19:16:42;;;;;;;31.70;14.75;;;;;;;6.66;97.98;99684.16;4301854;80;28504;-84
2022/12/04 19:22:45;;;;;;;26.55;14.00;;;;;;;6.61;97.79;99690.59;4279636;81;28517;-87
2022/12/04 19:28:50;;;;;;;29.50;14.13;;;;;;;6.58;97.82;99698.48;4320810;81;28549;-86
2022/12/04 19:34:53;;;;;;;23.85;12.10;;;;;;;6.41;99.16;99686.70;4298950;81;28521;-88
2022/12/04 19:41:18;;;;;;;30.08;14.20;;;;;;;6.39;98.14;99683.88;4277348;81;28562;-86
2022/12/04 19:47:19;;;;;;;31.37;14.85;;;;;;;6.37;100.00;99680.58;4302287;81;28500;-88
2022/12/04 19:53:21;;;;;;;28.87;14.07;;;;;;;6.29;100.00;99685.50;4312489;81;28549;-85
2022/12/04 19:59:25;;;;;;;29.52;14.03;;;;;;;6.25;100.00;99681.56;4316375;82;28532;-84
2022/12/04 20:05:28;;;;;;;29.45;14.50;;;;;;;6.79;98.01;99684.32;4315604;81;28565;-85
2022/12/04 20:11:32;;;;;;;31.25;14.47;;;;;;;6.68;97.97;99706.20;4316716;81;28521;-89
2022/12/04 20:17:33;;;;;;;29.55;14.47;;;;;;;6.12;100.00;99702.23;4327900;81;28481;-91
2022/12/04 20:23:41;;;;;;;28.15;14.18;;;;;;;6.65;99.17;99702.55;4332619;82;28505;-85
2022/12/04 20:29:42;;;;;;;30.77;14.78;;;;;;;6.51;100.00;99702.94;4292851;81;28529;-86
2022/12/04 20:35:46;;;;;;;29.52;15.03;;;;;;;6.24;99.56;99701.27;4329190;81;28622;-83
2022/12/04 20:41:47;;;;;;;27.42;13.08;;;;;;;6.59;99.39;99698.79;4357364;80;28582;-84
2022/12/04 20:47:51;;;;;;;30.70;15.30;;;;;;;6.26;98.20;99696.56;4361868;80;28504;-84
2022/12/04 20:53:57;;;;;;;28.17;14.80;;;;;;;6.30;99.99;99680.51;4355918;80;28485;-79
2022/12/04 20:59:58;;;;;;;26.25;13.60;;;;;;;6.09;98.84;99680.77;4368037;80;28566;-79
2022/12/04 21:05:59;;;;;;;32.08;15.48;;;;;;;6.25;98.76;99673.55;4372652;80;28574;-79
2022/12/04 21:12:01;;;;;;;31.33;15.13;;;;;;;6.46;98.86;99667.93;4357081;79;28542;-79
2022/12/04 21:18:03;;;;;;;31.60;14.93;;;;;;;6.29;99.08;99681.49;4342242;80;28532;-78
2022/12/04 21:24:09;;;;;;;34.48;15.72;;;;;;;6.08;99.87;99688.95;4336883;81;28572;-78
2022/12/04 21:30:11;;;;;;;29.92;15.18;;;;;;;6.50;97.16;99690.56;4353969;81;28541;-78
2022/12/04 21:36:13;;;;;;;32.17;15.72;;;;;;;6.26;98.73;99691.22;4338598;81;28540;-77
2022/12/04 21:42:31;;;;;;;31.12;15.72;;;;;;;6.05;99.83;99680.80;4350053;81;28539;-77
2022/12/04 21:48:34;;;;;;;32.00;14.60;;;;;;;6.18;98.60;99679.30;4330595;81;28524;-77
2022/12/04 21:54:38;;;;;;;35.52;17.02;;;;;;;6.40;97.95;99674.36;4339550;81;28535;-78
2022/12/04 22:00:40;;;;;;;30.02;14.45;;;;;;;6.68;97.05;99670.94;4349804;81;28532;-78
2022/12/04 22:06:43;;;;;;;32.13;15.85;;;;;;;7.01;92.57;99676.30;4343815;81;28547;-77
2022/12/04 22:12:45;;;;;;;28.85;15.00;;;;;;;6.92;94.03;99676.92;4334132;81;28480;-77
2022/12/04 22:18:46;;;;;;;32.17;15.70;;;;;;;7.31;92.25;99678.81;4346424;80;28515;-78
2022/12/04 22:24:50;;;;;;;31.27;15.08;;;;;;;6.84;94.65;99676.55;4315231;79;28579;-78
2022/12/04 22:30:51;;;;;;;32.48;16.05;;;;;;;5.89;97.53;99682.31;4362704;81;28586;-78
2022/12/04 22:36:53;;;;;;;30.35;15.08;;;;;;;6.47;98.37;99674.92;4366933;81;28528;-77
2022/12/04 22:42:54;;;;;;;30.70;15.30;;;;;;;7.18;93.33;99686.21;4361144;81;28588;-76
2022/12/04 22:48:59;;;;;;;29.40;14.43;;;;;;;7.25;92.00;99682.25;4357132;81;28514;-79
2022/12/04 22:55:01;;;;;;;29.55;14.93;;;;;;;7.60;89.54;99674.79;4330838;81;28535;-78
2022/12/04 23:01:19;;;;;;;30.50;14.73;;;;;;;7.09;90.73;99675.33;4266771;82;28508;-77
2022/12/04 23:07:20;;;;;;;28.73;13.85;;;;;;;6.64;95.01;99661.66;4325608;80;28534;-78
2022/12/04 23:13:21;;;;;;;27.93;13.30;;;;;;;7.06;92.62;99651.66;4254163;82;28561;-83
2022/12/04 23:19:23;;;;;;;28.27;13.85;;;;;;;6.77;92.03;99654.29;4253637;83;28994;-81
2022/12/04 23:25:25;;;;;;;33.65;15.48;;;;;;;6.77;93.05;99648.11;4217059;84;28516;-81
2022/12/04 23:31:28;;;;;;;30.12;14.55;;;;;;;6.66;94.50;99647.59;4227795;82;28475;-80
2022/12/04 23:37:29;;;;;;;27.73;13.95;;;;;;;6.30;95.73;99654.30;4251793;82;28541;-79
2022/12/04 23:43:31;;;;;;;30.23;14.98;;;;;;;6.96;93.58;99656.82;4215798;82;28527;-79
2022/12/04 23:49:32;;;;;;;29.37;14.65;;;;;;;6.98;93.51;99661.98;4262631;81;28534;-79
2022/12/04 23:55:34;;;;;;;31.75;14.98;;;;;;;6.96;92.73;99658.16;4231624;82;28576;-79
